Time;durP1;ratioP1;P1;durP2;ratioP2;P2;SDS_P1;SDS_P2;PMS_P1;PMS_P2;Temp;Humidity;BMP_temperature;BMP_pressure;BME280_temperature;BME280_humidity;BME280_pressure;Samples;Min_cycle;Max_cycle;Signal;HPM_P1;HPM_P2
2022/05/22 00:00:34;;;;;;;14.33;8.23;;;14.80;99.90;;;;;;4984187;28;20408;-82
2022/05/22 00:03:19;;;;;;;9.83;7.93;;;14.70;99.90;;;;;;4997376;28;20464;-81
2022/05/22 00:06:03;;;;;;;12.50;7.50;;;14.50;99.90;;;;;;4998455;28;20487;-81
2022/05/22 00:08:48;;;;;;;9.17;7.90;;;14.40;99.90;;;;;;5001037;28;20479;-81
2022/05/22 00:11:32;;;;;;;9.57;7.40;;;14.40;99.90;;;;;;5001051;28;20480;-82
2022/05/22 00:14:18;;;;;;;8.40;6.27;;;14.40;99.90;;;;;;4954029;28;20462;-82
2022/05/22 00:17:04;;;;;;;8.70;6.43;;;14.50;99.90;;;;;;5032338;28;20433;-82
2022/05/22 00:19:49;;;;;;;13.23;6.37;;;14.50;99.90;;;;;;5062394;28;20394;-82
2022/05/22 00:22:33;;;;;;;8.13;5.17;;;14.50;99.90;;;;;;5062412;28;20425;-82
2022/05/22 00:25:18;;;;;;;6.37;5.70;;;14.40;99.90;;;;;;5062334;28;20382;-82
2022/05/22 00:28:02;;;;;;;8.13;6.27;;;14.50;99.90;;;;;;5046960;28;20525;-82
2022/05/22 00:30:47;;;;;;;9.70;5.73;;;14.60;99.90;;;;;;5062451;28;20473;-82
2022/05/22 00:33:32;;;;;;;9.20;6.00;;;14.50;99.90;;;;;;5063146;28;20390;-83
2022/05/22 00:36:37;;;;;;;10.50;5.17;;;14.40;99.90;;;;;;5020028;28;20403;-81
2022/05/22 00:39:21;;;;;;;9.90;5.00;;;14.40;99.90;;;;;;5021483;28;20392;-82
2022/05/22 00:42:18;;;;;;;5.77;4.40;;;14.40;99.90;;;;;;5021992;28;20392;-82
2022/05/22 00:45:02;;;;;;;8.70;4.80;;;14.30;99.90;;;;;;5021961;28;20439;-83
2022/05/22 00:47:47;;;;;;;6.13;4.47;;;14.30;99.90;;;;;;5022293;28;20446;-82
2022/05/22 00:50:31;;;;;;;4.70;3.87;;;14.30;99.90;;;;;;5027079;28;20407;-81
2022/05/22 00:53:17;;;;;;;5.60;4.33;;;14.20;99.90;;;;;;5019750;28;20435;-80
2022/05/22 00:56:06;;;;;;;6.47;4.20;;;14.20;99.90;;;;;;5019541;28;20427;-82
2022/05/22 00:58:53;;;;;;;5.30;4.20;;;14.10;99.90;;;;;;5018547;28;20431;-83
2022/05/22 01:01:38;;;;;;;5.07;4.50;;;14.00;99.90;;;;;;5005337;28;20419;-82
2022/05/22 01:04:27;;;;;;;7.83;4.23;;;13.70;99.90;;;;;;5019025;28;20880;-82
2022/05/22 01:07:13;;;;;;;5.00;3.80;;;13.90;99.90;;;;;;5037549;28;20914;-80
2022/05/22 01:09:57;;;;;;;6.20;3.67;;;13.90;99.90;;;;;;5060685;28;20390;-82
2022/05/22 01:12:45;;;;;;;6.03;3.97;;;13.80;99.90;;;;;;5045659;28;20390;-82
2022/05/22 01:15:29;;;;;;;10.93;4.50;;;13.80;99.90;;;;;;5061034;28;20394;-81
2022/05/22 01:18:14;;;;;;;5.07;3.37;;;13.90;99.90;;;;;;5060454;28;20391;-82
2022/05/22 01:21:00;;;;;;;4.27;3.23;;;13.80;99.90;;;;;;5061089;28;20398;-80
2022/05/22 01:23:45;;;;;;;5.97;3.60;;;13.70;99.90;;;;;;5060959;28;20389;-82
2022/05/22 01:26:30;;;;;;;4.70;2.90;;;13.80;99.90;;;;;;5061165;28;20386;-82
2022/05/22 01:29:16;;;;;;;5.30;2.73;;;13.70;99.90;;;;;;5060352;28;20481;-82
2022/05/22 01:32:00;;;;;;;3.93;3.43;;;13.70;99.90;;;;;;5059245;28;20382;-82
2022/05/22 01:34:45;;;;;;;5.23;3.20;;;13.70;99.90;;;;;;5045340;28;20708;-82
2022/05/22 01:37:29;;;;;;;4.57;3.33;;;14.00;99.90;;;;;;5060597;28;20436;-81
2022/05/22 01:40:16;;;;;;;5.73;3.77;;;13.80;99.90;;;;;;5061090;28;20386;-82
2022/05/22 01:43:01;;;;;;;5.13;3.70;;;13.70;99.90;;;;;;5060215;28;20762;-81
2022/05/22 01:45:46;;;;;;;4.80;3.93;;;13.80;99.90;;;;;;5060004;28;20431;-82
2022/05/22 01:48:30;;;;;;;3.27;3.07;;;13.80;99.90;;;;;;5060379;28;20493;-82
2022/05/22 01:51:15;;;;;;;3.73;3.43;;;13.70;99.90;;;;;;5045158;28;20424;-81
2022/05/22 01:54:03;;;;;;;3.40;3.00;;;13.70;99.90;;;;;;5059325;28;20428;-82
2022/05/22 01:56:48;;;;;;;3.60;3.30;;;13.60;99.90;;;;;;5060399;28;20484;-81
2022/05/22 01:59:32;;;;;;;4.90;3.50;;;13.60;99.90;;;;;;5061258;28;20402;-81
2022/05/22 02:02:17;;;;;;;4.70;3.10;;;13.60;99.90;;;;;;5045798;28;20739;-81
2022/05/22 02:05:02;;;;;;;3.07;2.87;;;13.60;99.90;;;;;;5061401;28;20526;-82
2022/05/22 02:10:52;;;;;;;3.17;2.97;;;13.50;99.90;;;;;;5059182;28;20386;-81
2022/05/22 02:13:39;;;;;;;5.27;3.10;;;13.50;99.90;;;;;;5059752;28;20438;-83
2022/05/22 02:16:25;;;;;;;4.10;3.27;;;13.70;99.90;;;;;;5059560;28;20383;-81
2022/05/22 02:19:10;;;;;;;3.40;2.70;;;13.60;99.90;;;;;;5058904;28;20393;-81
2022/05/22 02:21:55;;;;;;;9.13;3.90;;;13.40;99.90;;;;;;5059317;28;20404;-81
2022/05/22 02:24:39;;;;;;;6.53;3.77;;;13.60;99.90;;;;;;5059794;28;20386;-81
2022/05/22 02:27:24;;;;;;;3.07;2.80;;;13.90;99.90;;;;;;5058115;28;20438;-82
2022/05/22 02:30:12;;;;;;;3.73;3.43;;;14.00;99.90;;;;;;5059204;28;20485;-82
2022/05/22 02:32:56;;;;;;;3.40;3.10;;;14.20;99.90;;;;;;5059431;28;20386;-82
2022/05/22 02:35:41;;;;;;;7.43;3.40;;;13.90;99.90;;;;;;5059628;28;20394;-82
2022/05/22 02:38:26;;;;;;;10.97;3.10;;;13.70;99.90;;;;;;5061106;28;20385;-82
2022/05/22 02:41:12;;;;;;;4.00;3.70;;;13.80;99.90;;;;;;5059999;28;20681;-82
2022/05/22 02:43:56;;;;;;;6.30;3.17;;;13.70;99.90;;;;;;5059519;28;20900;-80
2022/05/22 02:46:42;;;;;;;6.43;3.57;;;13.70;99.90;;;;;;5059674;28;20390;-82
2022/05/22 02:49:26;;;;;;;6.33;2.80;;;13.70;99.90;;;;;;5058357;28;20746;-81
2022/05/22 02:52:11;;;;;;;4.27;3.90;;;13.60;99.90;;;;;;5058803;28;20417;-81
2022/05/22 02:54:56;;;;;;;3.40;3.10;;;13.90;99.90;;;;;;5058713;28;20374;-81
2022/05/22 02:57:40;;;;;;;3.00;2.80;;;14.10;99.90;;;;;;5059031;28;20397;-82
2022/05/22 03:00:27;;;;;;;4.13;3.70;;;13.90;99.90;;;;;;5058289;28;20374;-82
2022/05/22 03:03:11;;;;;;;3.90;2.93;;;13.90;99.90;;;;;;5043152;28;20413;-81
2022/05/22 03:08:56;;;;;;;5.23;3.50;;;13.70;99.90;;;;;;5058551;28;20449;-82
2022/05/22 03:11:41;;;;;;;4.97;4.30;;;13.60;99.90;;;;;;5059043;28;20476;-82
2022/05/22 03:14:26;;;;;;;5.13;3.70;;;13.70;99.90;;;;;;5058463;28;20437;-82
2022/05/22 03:17:10;;;;;;;3.37;3.17;;;13.80;99.90;;;;;;5058406;28;20406;-81
2022/05/22 03:19:55;;;;;;;2.80;2.60;;;13.90;99.90;;;;;;5058756;28;20393;-81
2022/05/22 03:22:40;;;;;;;3.30;3.03;;;13.70;99.90;;;;;;5071352;28;20440;-79
2022/05/22 03:25:25;;;;;;;4.10;3.53;;;13.90;99.90;;;;;;5069723;28;20409;-82
2022/05/22 03:28:10;;;;;;;4.53;3.40;;;14.10;99.90;;;;;;5067689;28;20460;-80
2022/05/22 03:30:55;;;;;;;3.70;3.00;;;14.20;99.90;;;;;;5053798;28;20394;-81
2022/05/22 03:33:41;;;;;;;3.93;3.63;;;14.10;99.90;;;;;;5059480;28;20409;-82
2022/05/22 03:36:26;;;;;;;3.37;3.07;;;14.00;99.90;;;;;;5043699;28;20393;-82
2022/05/22 03:39:10;;;;;;;9.07;3.33;;;13.90;99.90;;;;;;5058471;28;20420;-82
2022/05/22 03:41:55;;;;;;;2.93;2.53;;;14.00;99.90;;;;;;5061724;28;20501;-82
2022/05/22 03:44:40;;;;;;;3.77;3.40;;;13.80;99.90;;;;;;5062751;28;20529;-82
2022/05/22 03:47:24;;;;;;;4.10;3.20;;;14.00;99.90;;;;;;5071040;28;20461;-80
2022/05/22 03:50:11;;;;;;;3.27;2.97;;;14.00;99.90;;;;;;5080912;28;20413;-80
2022/05/22 03:52:56;;;;;;;3.60;2.83;;;13.90;99.90;;;;;;5076964;28;20800;-79
2022/05/22 03:55:42;;;;;;;3.27;2.70;;;14.20;99.90;;;;;;5061823;28;20436;-79
2022/05/22 03:58:27;;;;;;;3.37;3.07;;;14.00;99.90;;;;;;5063638;28;20413;-82
2022/05/22 04:01:12;;;;;;;4.97;4.23;;;14.00;99.90;;;;;;5062170;28;20390;-82
2022/05/22 04:03:57;;;;;;;4.90;3.07;;;14.00;99.90;;;;;;5046956;28;20521;-83
2022/05/22 04:06:41;;;;;;;3.23;2.93;;;13.90;99.90;;;;;;5061699;28;20492;-82
2022/05/22 04:09:28;;;;;;;3.60;3.10;;;14.00;99.90;;;;;;5061411;28;20409;-82
2022/05/22 04:12:13;;;;;;;10.23;3.43;;;14.10;99.90;;;;;;5060882;28;20513;-82
2022/05/22 04:14:58;;;;;;;4.33;2.60;;;14.00;99.90;;;;;;5046431;28;20374;-82
2022/05/22 04:17:42;;;;;;;3.40;2.90;;;14.00;99.90;;;;;;5060933;28;20382;-82
2022/05/22 04:20:27;;;;;;;2.63;2.43;;;14.00;99.90;;;;;;5061656;28;20378;-82
2022/05/22 04:26:12;;;;;;;2.93;2.73;;;14.10;99.90;;;;;;5048393;28;20434;-82
2022/05/22 04:28:56;;;;;;;2.97;2.67;;;14.00;99.90;;;;;;5061145;28;20489;-82
2022/05/22 04:31:41;;;;;;;5.77;2.93;;;13.70;99.90;;;;;;5061405;28;20441;-82
2022/05/22 04:34:26;;;;;;;2.90;2.47;;;13.90;99.90;;;;;;5061480;28;20381;-81
2022/05/22 04:37:10;;;;;;;2.53;2.33;;;13.90;99.90;;;;;;5046174;28;20381;-81
2022/05/22 04:39:55;;;;;;;2.70;2.50;;;14.00;99.90;;;;;;5060436;28;20901;-82
2022/05/22 04:42:40;;;;;;;2.70;2.50;;;14.10;99.90;;;;;;5061015;28;20932;-82
2022/05/22 04:45:25;;;;;;;3.17;2.93;;;14.10;99.90;;;;;;5061889;28;20513;-82
2022/05/22 04:48:10;;;;;;;4.97;2.77;;;14.20;99.90;;;;;;5047293;28;20965;-82
2022/05/22 04:50:55;;;;;;;6.03;2.40;;;14.30;99.90;;;;;;5064223;28;20378;-80
2022/05/22 04:53:39;;;;;;;4.23;2.73;;;14.20;99.90;;;;;;5075450;28;20438;-79
2022/05/22 04:56:24;;;;;;;3.10;2.90;;;14.40;99.90;;;;;;5074640;28;20465;-79
2022/05/22 04:59:09;;;;;;;6.13;2.70;;;14.60;99.90;;;;;;5075457;28;20397;-79
2022/05/22 05:01:54;;;;;;;5.80;2.87;;;14.60;99.90;;;;;;5075590;28;20500;-79
2022/05/22 05:04:38;;;;;;;4.17;3.10;;;14.50;99.90;;;;;;5068969;28;20401;-81
2022/05/22 05:07:22;;;;;;;4.60;3.00;;;14.70;99.90;;;;;;5066743;28;20491;-80
2022/05/22 05:10:09;;;;;;;2.77;2.57;;;14.60;99.90;;;;;;5075408;28;20394;-82
2022/05/22 05:12:54;;;;;;;3.10;2.90;;;14.80;99.90;;;;;;5075012;28;20443;-80
2022/05/22 05:15:41;;;;;;;3.93;2.70;;;14.90;99.90;;;;;;5064180;28;20921;-82
2022/05/22 05:18:25;;;;;;;3.57;3.30;;;14.70;99.90;;;;;;5060688;28;20459;-81
2022/05/22 05:21:12;;;;;;;3.50;3.20;;;14.80;99.90;;;;;;5061225;28;20451;-82
2022/05/22 05:23:56;;;;;;;5.13;3.80;;;14.90;99.90;;;;;;5060403;28;20389;-82
2022/05/22 05:26:41;;;;;;;4.00;3.67;;;15.00;99.90;;;;;;5062039;28;20406;-83
2022/05/22 05:29:25;;;;;;;3.40;3.17;;;14.90;99.90;;;;;;5057169;28;20549;-78
2022/05/22 05:32:10;;;;;;;4.67;3.80;;;15.00;99.90;;;;;;5058832;28;20394;-80
2022/05/22 05:34:59;;;;;;;4.37;3.30;;;15.00;99.90;;;;;;5072413;28;20389;-81
2022/05/22 05:37:43;;;;;;;6.07;3.77;;;14.90;99.90;;;;;;5061646;28;20409;-82
2022/05/22 05:40:28;;;;;;;4.33;2.97;;;15.10;99.90;;;;;;5059069;28;20378;-82
2022/05/22 05:43:13;;;;;;;5.40;3.50;;;15.30;99.90;;;;;;5060838;28;20397;-82
2022/05/22 05:45:58;;;;;;;5.50;3.20;;;15.00;99.90;;;;;;5062213;28;20709;-80
2022/05/22 05:48:42;;;;;;;3.20;3.00;;;14.90;99.90;;;;;;5073267;28;20956;-79
2022/05/22 05:51:27;;;;;;;4.53;3.60;;;15.30;99.90;;;;;;5073382;28;20378;-80
2022/05/22 05:54:12;;;;;;;5.23;3.87;;;15.50;99.90;;;;;;5073607;28;20439;-79
2022/05/22 05:56:58;;;;;;;3.50;3.20;;;15.50;99.90;;;;;;5058805;28;20440;-80
2022/05/22 05:59:42;;;;;;;4.30;3.13;;;15.80;99.90;;;;;;5073688;28;20401;-80
2022/05/22 06:02:26;;;;;;;3.40;3.10;;;16.10;99.90;;;;;;5073864;28;20393;-81
2022/05/22 06:05:12;;;;;;;8.27;4.17;;;15.70;99.90;;;;;;5072785;28;20469;-80
2022/05/22 06:07:56;;;;;;;9.23;4.03;;;15.70;99.90;;;;;;5072741;28;20526;-80
2022/05/22 06:10:41;;;;;;;7.50;4.10;;;15.60;99.90;;;;;;5071293;28;20386;-80
2022/05/22 06:13:26;;;;;;;8.03;3.37;;;15.90;99.90;;;;;;5072286;28;20386;-81
2022/05/22 06:16:10;;;;;;;5.03;3.70;;;15.90;99.90;;;;;;5071967;28;20417;-79
2022/05/22 06:18:55;;;;;;;3.30;3.10;;;16.00;99.90;;;;;;5073624;28;20436;-79
2022/05/22 06:21:42;;;;;;;4.27;3.60;;;16.00;99.90;;;;;;5072885;28;20418;-83
2022/05/22 06:24:34;;;;;;;9.90;3.53;;;15.90;99.90;;;;;;5072694;28;20424;-79
2022/05/22 06:27:19;;;;;;;4.10;3.60;;;16.20;99.90;;;;;;5030926;28;20493;-80
2022/05/22 06:30:05;;;;;;;3.40;3.10;;;16.40;99.90;;;;;;5073327;28;20394;-80
2022/05/22 06:32:50;;;;;;;5.43;3.80;;;16.40;99.90;;;;;;5056971;28;20398;-80
2022/05/22 06:35:34;;;;;;;5.00;3.10;;;16.40;99.90;;;;;;5071386;28;20386;-79
2022/05/22 06:41:17;;;;;;;3.23;2.77;;;16.60;99.90;;;;;;5072211;28;20389;-79
2022/05/22 06:44:01;;;;;;;3.10;2.70;;;16.30;99.90;;;;;;5071635;28;20432;-79
2022/05/22 06:46:46;;;;;;;2.90;2.70;;;16.60;99.90;;;;;;5071784;28;20377;-79
2022/05/22 06:49:30;;;;;;;6.20;2.50;;;16.70;99.90;;;;;;5072485;28;20394;-79
2022/05/22 06:52:15;;;;;;;4.63;2.80;;;16.50;99.90;;;;;;5062762;28;20401;-82
2022/05/22 06:55:00;;;;;;;5.67;3.40;;;16.80;99.90;;;;;;5062169;28;20378;-83
2022/05/22 06:57:45;;;;;;;5.50;3.47;;;17.20;99.90;;;;;;5045821;28;20789;-82
2022/05/22 07:00:30;;;;;;;4.37;2.67;;;17.30;99.90;;;;;;5060976;28;20389;-81
2022/05/22 07:03:14;;;;;;;3.00;2.70;;;17.50;99.90;;;;;;5070911;28;20378;-79
2022/05/22 07:05:59;;;;;;;7.23;3.20;;;17.60;99.90;;;;;;5067048;28;20495;-82
2022/05/22 07:08:43;;;;;;;4.53;3.23;;;17.70;99.90;;;;;;5067974;28;20473;-81
2022/05/22 07:14:23;;;;;;;3.07;2.87;;;17.90;99.90;;;;;;5064533;28;20437;-82
2022/05/22 07:17:11;;;;;;;3.00;2.80;;;18.00;99.90;;;;;;5035901;28;20414;-82
2022/05/22 07:19:56;;;;;;;3.53;3.33;;;18.10;99.90;;;;;;5065520;28;20382;-82
2022/05/22 07:22:40;;;;;;;3.00;2.80;;;17.80;99.90;;;;;;5003305;28;20416;-82
2022/05/22 07:25:26;;;;;;;3.07;2.70;;;18.00;99.90;;;;;;5008370;28;20465;-82
2022/05/22 07:28:10;;;;;;;3.40;3.00;;;17.40;99.90;;;;;;4992635;28;21000;-82
2022/05/22 07:30:57;;;;;;;4.10;2.47;;;17.50;99.90;;;;;;4983455;28;20422;-82
2022/05/22 07:33:41;;;;;;;2.40;2.20;;;17.90;99.90;;;;;;4982870;28;20389;-81
2022/05/22 07:36:26;;;;;;;4.57;2.63;;;18.10;99.90;;;;;;4982156;28;20429;-82
2022/05/22 07:39:11;;;;;;;3.17;2.90;;;18.30;99.90;;;;;;4981836;28;20471;-82
2022/05/22 07:41:55;;;;;;;6.47;2.47;;;18.40;99.90;;;;;;4969492;28;20456;-83
2022/05/22 07:44:40;;;;;;;4.80;2.80;;;18.60;99.90;;;;;;4968958;28;20406;-82
2022/05/22 07:47:24;;;;;;;5.20;2.40;;;18.60;99.90;;;;;;4981815;28;20470;-82
2022/05/22 07:50:20;;;;;;;3.60;2.97;;;18.70;99.90;;;;;;4981674;28;21038;-82
2022/05/22 07:53:05;;;;;;;6.53;3.17;;;18.80;99.90;;;;;;4966374;28;20412;-83
2022/05/22 07:55:50;;;;;;;6.07;3.47;;;18.90;99.90;;;;;;5002014;28;20512;-82
2022/05/22 07:58:35;;;;;;;4.50;3.40;;;19.00;99.90;;;;;;5008897;28;20411;-83
2022/05/22 08:01:19;;;;;;;3.13;2.90;;;19.10;99.90;;;;;;5021543;28;20530;-82
2022/05/22 08:04:05;;;;;;;3.50;2.60;;;19.20;99.90;;;;;;5021682;28;20399;-83
2022/05/22 08:06:51;;;;;;;2.70;2.50;;;19.20;99.90;;;;;;5023444;28;20463;-79
2022/05/22 08:09:36;;;;;;;2.43;2.23;;;19.30;99.90;;;;;;4972118;28;20413;-80
2022/05/22 08:12:21;;;;;;;4.60;2.90;;;18.80;99.90;;;;;;4984712;28;20413;-81
2022/05/22 08:15:07;;;;;;;3.87;2.50;;;19.00;99.90;;;;;;4984930;28;20438;-80
2022/05/22 08:17:53;;;;;;;4.30;2.80;;;19.10;99.90;;;;;;4949742;28;20421;-81
2022/05/22 08:20:39;;;;;;;5.67;2.80;;;19.10;99.90;;;;;;4950587;29;20805;-80
2022/05/22 08:23:24;;;;;;;2.70;2.50;;;19.10;99.90;;;;;;4956971;28;20400;-80
2022/05/22 08:26:33;;;;;;;3.00;2.80;;;19.30;99.90;;;;;;4937006;28;20492;-80
2022/05/22 08:29:20;;;;;;;2.87;2.60;;;19.50;99.90;;;;;;4911944;29;20459;-80
2022/05/22 08:32:05;;;;;;;3.13;2.93;;;19.40;99.90;;;;;;4912495;29;20437;-80
2022/05/22 08:34:54;;;;;;;2.53;2.33;;;19.30;99.90;;;;;;4857138;29;20522;-81
2022/05/22 08:37:42;;;;;;;3.73;3.30;;;19.60;99.90;;;;;;4851172;29;20416;-81
2022/05/22 08:40:33;;;;;;;4.50;2.90;;;19.90;99.90;;;;;;4816830;29;20427;-81
2022/05/22 08:43:44;;;;;;;4.43;2.30;;;20.10;99.90;;;;;;4850348;29;20432;-81
2022/05/22 08:46:43;;;;;;;2.20;2.00;;;20.20;99.90;;;;;;4832173;29;20603;-81
2022/05/22 08:49:48;;;;;;;2.57;2.37;;;20.30;99.90;;;;;;4834584;29;20471;-80
2022/05/22 08:52:46;;;;;;;5.60;2.27;;;19.30;99.90;;;;;;4844726;29;20465;-81
2022/05/22 08:59:03;;;;;;;3.93;2.63;;;19.10;99.90;;;;;;4850064;29;20500;-81
2022/05/22 09:02:26;;;;;;;6.30;2.80;;;19.60;99.90;;;;;;4858401;29;20979;-81
2022/05/22 09:05:17;;;;;;;3.80;2.23;;;19.40;99.90;;;;;;4875123;29;20473;-80
2022/05/22 09:08:07;;;;;;;3.13;2.93;;;19.50;99.90;;;;;;4899291;29;20480;-79
2022/05/22 09:11:06;;;;;;;17.97;2.80;;;19.60;99.90;;;;;;4901506;29;20448;-80
2022/05/22 09:14:09;;;;;;;3.37;2.43;;;20.00;99.90;;;;;;4911556;29;20439;-81
2022/05/22 09:17:04;;;;;;;2.70;2.50;;;20.20;99.90;;;;;;4924771;29;20441;-80
2022/05/22 09:20:18;;;;;;;2.60;2.40;;;20.30;99.90;;;;;;4934571;29;20405;-81
2022/05/22 09:23:26;;;;;;;3.30;2.10;;;20.30;99.90;;;;;;4950474;28;20422;-81
2022/05/22 09:26:37;;;;;;;4.13;2.70;;;20.30;99.90;;;;;;4973088;28;20822;-80
2022/05/22 09:29:46;;;;;;;2.67;2.47;;;20.30;99.90;;;;;;4991805;28;20467;-80
2022/05/22 09:33:00;;;;;;;4.43;2.73;;;20.30;99.90;;;;;;4987259;28;20469;-81
2022/05/22 09:36:09;;;;;;;3.37;2.33;;;20.20;99.90;;;;;;4977815;28;20412;-80
2022/05/22 09:39:28;;;;;;;5.70;3.13;;;20.00;99.90;;;;;;4990048;28;21004;-77
2022/05/22 09:42:39;;;;;;;6.23;2.30;;;20.00;99.90;;;;;;4998313;28;20476;-80
2022/05/22 09:45:51;;;;;;;4.40;2.10;;;19.80;99.90;;;;;;5008672;28;20806;-81
2022/05/22 09:48:57;;;;;;;6.10;2.50;;;19.80;99.90;;;;;;4973942;28;20508;-81
2022/05/22 09:52:24;;;;;;;4.37;3.30;;;20.30;99.90;;;;;;5001378;28;20497;-81
2022/05/22 09:55:41;;;;;;;3.73;2.73;;;20.30;99.90;;;;;;4990818;28;20436;-81
2022/05/22 09:58:55;;;;;;;8.10;3.10;;;20.40;99.90;;;;;;5033332;28;20418;-81
2022/05/22 10:01:51;;;;;;;6.27;4.03;;;20.30;99.90;;;;;;5047468;28;20418;-81
2022/05/22 10:04:54;;;;;;;3.73;2.90;;;20.40;99.90;;;;;;5002236;28;20438;-80
2022/05/22 10:08:00;;;;;;;2.90;2.03;;;21.10;99.90;;;;;;5007718;28;20491;-79
2022/05/22 10:11:19;;;;;;;4.73;2.60;;;21.10;99.90;;;;;;4998264;28;20420;-81
2022/05/22 10:14:31;;;;;;;4.23;2.10;;;20.70;99.90;;;;;;4943713;29;20525;-81
2022/05/22 10:17:51;;;;;;;3.70;2.57;;;20.60;99.90;;;;;;4932289;29;20407;-82
2022/05/22 10:21:08;;;;;;;3.10;2.57;;;20.50;99.90;;;;;;4943729;29;20496;-82
2022/05/22 10:24:20;;;;;;;3.00;2.40;;;20.40;99.90;;;;;;4930625;29;20440;-81
2022/05/22 10:27:31;;;;;;;2.87;2.67;;;20.90;99.90;;;;;;4944679;29;20915;-82
2022/05/22 10:30:26;;;;;;;2.47;2.10;;;21.70;99.90;;;;;;4886814;29;20446;-79
2022/05/22 10:33:20;;;;;;;2.43;2.23;;;21.40;99.90;;;;;;4891470;29;20832;-81
2022/05/22 10:36:20;;;;;;;3.00;2.10;;;21.40;99.90;;;;;;4882187;29;20796;-80
2022/05/22 10:39:09;;;;;;;2.80;2.13;;;21.40;99.90;;;;;;4893621;29;20401;-83
2022/05/22 10:45:12;;;;;;;2.27;1.70;;;22.80;99.90;;;;;;4931237;29;20512;-82
2022/05/22 10:48:11;;;;;;;2.70;2.50;;;22.90;98.40;;;;;;4943964;29;20979;-83
2022/05/22 10:51:06;;;;;;;6.63;2.10;;;23.30;97.40;;;;;;4949413;29;20413;-81
2022/05/22 10:53:56;;;;;;;2.03;1.67;;;23.10;96.00;;;;;;4961335;29;20491;-82
2022/05/22 10:57:13;;;;;;;7.50;2.70;;;21.60;96.30;;;;;;4964110;29;20519;-81
2022/05/22 11:00:10;;;;;;;8.10;2.47;;;22.70;97.70;;;;;;4941227;29;20431;-83
2022/05/22 11:02:54;;;;;;;2.40;2.20;;;22.90;99.30;;;;;;4950792;28;20460;-83
2022/05/22 11:05:48;;;;;;;6.13;2.00;;;22.30;97.40;;;;;;5000811;28;20459;-83
2022/05/22 11:08:35;;;;;;;3.53;2.23;;;22.10;99.90;;;;;;5002615;28;20495;-84
2022/05/22 11:11:27;;;;;;;2.57;1.90;;;22.10;99.90;;;;;;5007251;28;20446;-83
2022/05/22 11:14:15;;;;;;;2.10;1.97;;;21.90;99.10;;;;;;5003898;28;20444;-82
2022/05/22 11:17:24;;;;;;;3.60;2.20;;;22.30;99.10;;;;;;5000708;28;20380;-81
2022/05/22 11:20:18;;;;;;;1.70;1.60;;;22.50;97.10;;;;;;5000210;28;20401;-84
2022/05/22 11:23:24;;;;;;;4.53;2.23;;;23.20;99.90;;;;;;5000561;28;20430;-80
2022/05/22 11:26:36;;;;;;;2.97;2.63;;;23.90;93.10;;;;;;5000310;28;20475;-83
2022/05/22 11:29:56;;;;;;;2.20;1.90;;;24.40;91.80;;;;;;4991870;28;20456;-80
2022/05/22 11:33:19;;;;;;;3.87;2.50;;;24.20;90.60;;;;;;5042494;28;20413;-83
2022/05/22 11:36:24;;;;;;;2.30;2.10;;;23.10;90.80;;;;;;5025456;28;20409;-84
2022/05/22 11:39:26;;;;;;;2.30;1.87;;;24.50;91.30;;;;;;5040926;28;20429;-83
2022/05/22 11:42:25;;;;;;;2.60;2.10;;;25.10;91.30;;;;;;5027756;28;20413;-84
2022/05/22 11:45:43;;;;;;;3.50;2.00;;;25.30;86.00;;;;;;5041577;28;20430;-84
2022/05/22 11:49:06;;;;;;;3.63;3.33;;;25.00;83.50;;;;;;5041828;28;20442;-83
2022/05/22 11:55:37;;;;;;;2.97;2.33;;;23.80;87.40;;;;;;5028130;28;20449;-83
2022/05/22 11:58:31;;;;;;;2.53;2.33;;;25.20;82.00;;;;;;5042240;28;20412;-84
2022/05/22 12:01:27;;;;;;;4.80;2.67;;;24.50;78.50;;;;;;5028616;28;20437;-83
2022/05/22 12:04:37;;;;;;;4.20;2.63;;;23.50;83.70;;;;;;5030548;28;20413;-84
2022/05/22 12:07:50;;;;;;;2.70;1.83;;;24.00;84.80;;;;;;5046111;28;20494;-83
2022/05/22 12:10:43;;;;;;;1.87;1.50;;;25.50;84.00;;;;;;5046203;28;20414;-84
2022/05/22 12:13:55;;;;;;;3.03;2.70;;;26.50;80.30;;;;;;5029351;28;20740;-84
2022/05/22 12:16:46;;;;;;;2.17;1.90;;;26.60;77.50;;;;;;5019730;28;20410;-85
2022/05/22 12:19:54;;;;;;;2.70;1.80;;;26.00;77.00;;;;;;5044582;28;20476;-83
2022/05/22 12:26:00;;;;;;;4.63;2.10;;;25.40;75.40;;;;;;5033953;28;20391;-82
2022/05/22 12:28:50;;;;;;;2.30;2.10;;;26.50;76.10;;;;;;5002194;28;20445;-83
2022/05/22 12:31:47;;;;;;;5.50;1.90;;;27.20;73.10;;;;;;5043843;28;20398;-84
2022/05/22 12:34:41;;;;;;;4.43;2.17;;;28.00;69.70;;;;;;5014988;28;20402;-83
2022/05/22 12:37:41;;;;;;;2.23;1.80;;;26.50;67.20;;;;;;5043729;28;20385;-83
2022/05/22 12:40:50;;;;;;;3.20;1.70;;;27.80;71.70;;;;;;5043646;28;20437;-82
2022/05/22 12:43:55;;;;;;;2.50;2.30;;;28.90;67.10;;;;;;4992552;28;20431;-83
2022/05/22 12:46:39;;;;;;;2.87;2.30;;;29.20;64.30;;;;;;4957199;29;20578;-84
2022/05/22 12:49:28;;;;;;;2.90;1.93;;;29.20;62.20;;;;;;4969734;29;20198;-83
2022/05/22 12:52:30;;;;;;;1.77;1.60;;;28.40;63.50;;;;;;4969810;29;20710;-83
2022/05/22 12:55:31;;;;;;;2.00;1.80;;;27.70;63.00;;;;;;4957130;29;20233;-82
2022/05/22 12:58:39;;;;;;;23.37;21.63;;;27.30;64.30;;;;;;4972554;28;20461;-83
2022/05/22 13:01:41;;;;;;;2.07;1.87;;;25.60;66.70;;;;;;4958182;29;20532;-83
2022/05/22 13:04:52;;;;;;;7.27;2.77;;;24.60;70.80;;;;;;4960824;29;20529;-82
2022/05/22 13:07:37;;;;;;;2.23;1.83;;;25.30;67.90;;;;;;4962368;28;20755;-81
2022/05/22 13:10:34;;;;;;;1.90;1.80;;;25.70;67.90;;;;;;4961979;29;20401;-82
2022/05/22 13:13:45;;;;;;;2.23;2.03;;;26.30;65.80;;;;;;4967338;28;20434;-83
2022/05/22 13:16:43;;;;;;;3.63;2.40;;;25.30;69.00;;;;;;5006106;28;20448;-84
2022/05/22 13:19:32;;;;;;;2.77;2.50;;;24.60;71.50;;;;;;5041030;28;20844;-79
2022/05/22 13:22:39;;;;;;;2.37;2.03;;;24.70;73.70;;;;;;5025915;28;20464;-80
2022/05/22 13:25:28;;;;;;;2.57;2.30;;;25.90;74.70;;;;;;5026943;28;20398;-81
2022/05/22 13:28:43;;;;;;;4.03;2.20;;;26.70;72.00;;;;;;5027497;28;20446;-83
2022/05/22 13:31:38;;;;;;;3.50;2.10;;;27.40;69.90;;;;;;5042273;28;20452;-83
2022/05/22 13:34:29;;;;;;;2.10;1.90;;;27.80;67.50;;;;;;5039960;28;20482;-82
2022/05/22 13:37:25;;;;;;;2.37;2.17;;;28.00;68.30;;;;;;5057893;28;20397;-79
2022/05/22 13:40:19;;;;;;;3.00;2.23;;;28.20;62.90;;;;;;5074098;28;20450;-81
2022/05/22 13:43:33;;;;;;;2.13;2.03;;;28.70;62.00;;;;;;5074152;28;20157;-84
2022/05/22 13:46:45;;;;;;;4.03;1.92;;;28.80;60.90;;;;;;5073927;28;20194;-83
2022/05/22 13:49:53;;;;;;;3.63;2.30;;;29.60;63.70;;;;;;5066265;28;20197;-82
2022/05/22 13:53:03;;;;;;;3.58;1.80;;;28.50;62.80;;;;;;5064055;28;20591;-84
2022/05/22 13:55:50;;;;;;;2.70;2.08;;;29.20;61.40;;;;;;5049528;28;20197;-84
2022/05/22 13:58:38;;;;;;;1.60;1.48;;;29.80;58.70;;;;;;5048679;28;20197;-84
2022/05/22 14:01:23;;;;;;;2.35;2.15;;;28.50;60.00;;;;;;5048021;28;20233;-84
2022/05/22 14:04:09;;;;;;;3.05;1.80;;;27.70;62.30;;;;;;5067622;28;20178;-83
2022/05/22 14:06:54;;;;;;;3.85;3.28;;;28.00;61.70;;;;;;5063634;28;20221;-83
2022/05/22 14:09:42;;;;;;;2.43;2.23;;;26.00;61.10;;;;;;5048898;28;20211;-81
2022/05/22 14:12:32;;;;;;;3.37;2.43;;;24.70;68.30;;;;;;5047802;28;20420;-82
2022/05/22 14:15:23;;;;;;;2.30;2.10;;;24.70;74.40;;;;;;5071047;28;20390;-82
2022/05/22 14:18:13;;;;;;;2.20;1.90;;;23.70;72.30;;;;;;5058719;28;20400;-82
2022/05/22 14:21:01;;;;;;;4.07;2.37;;;24.00;72.90;;;;;;5051164;28;20432;-82
2022/05/22 14:26:44;;;;;;;2.43;1.90;;;23.90;72.50;;;;;;5048533;28;20433;-82
2022/05/22 14:29:28;;;;;;;3.83;2.60;;;24.40;71.30;;;;;;5062625;28;20445;-81
2022/05/22 14:32:17;;;;;;;2.50;2.30;;;25.60;70.30;;;;;;5062951;28;20440;-82
2022/05/22 14:35:05;;;;;;;2.37;2.17;;;26.50;71.00;;;;;;5032627;28;20421;-84
2022/05/22 14:37:50;;;;;;;1.70;1.60;;;27.10;68.90;;;;;;5001860;28;20411;-83
2022/05/22 14:40:46;;;;;;;2.43;2.13;;;25.30;65.90;;;;;;5001375;28;20456;-81
2022/05/22 14:43:36;;;;;;;2.77;1.80;;;25.50;69.10;;;;;;5001126;28;20424;-83
2022/05/22 14:46:46;;;;;;;2.87;1.77;;;27.20;67.00;;;;;;4988644;28;20436;-84
2022/05/22 14:49:41;;;;;;;2.27;2.00;;;27.30;65.90;;;;;;5009097;28;20454;-83
2022/05/22 14:52:34;;;;;;;2.23;2.03;;;26.90;63.30;;;;;;4977283;28;20435;-79
2022/05/22 14:55:31;;;;;;;2.23;2.00;;;27.60;67.40;;;;;;4951847;28;20534;-82
2022/05/22 14:58:29;;;;;;;2.40;1.93;;;27.90;64.20;;;;;;5000155;28;20404;-84
2022/05/22 15:01:25;;;;;;;2.60;1.83;;;28.40;60.40;;;;;;4987844;28;20388;-83
2022/05/22 15:04:15;;;;;;;1.90;1.80;;;28.90;63.20;;;;;;4987087;28;20400;-83
2022/05/22 15:07:02;;;;;;;5.43;1.90;;;28.60;62.20;;;;;;5001123;28;20480;-82
2022/05/22 15:09:57;;;;;;;2.60;2.10;;;28.30;61.90;;;;;;5047163;28;20489;-83
2022/05/22 15:12:42;;;;;;;2.87;1.90;;;28.30;61.10;;;;;;5061519;28;20436;-82
2022/05/22 15:15:33;;;;;;;5.20;2.30;;;28.30;60.70;;;;;;5047176;28;20173;-85
2022/05/22 15:18:23;;;;;;;2.00;1.90;;;28.30;61.80;;;;;;5045972;28;20393;-80
2022/05/22 15:21:29;;;;;;;3.83;2.13;;;28.10;63.00;;;;;;5041709;28;20402;-81